Time;durP1;ratioP1;P1;durP2;ratioP2;P2;SDS_P1;SDS_P2;PMS_P1;PMS_P2;Temp;Humidity;BMP_temperature;BMP_pressure;BME280_temperature;BME280_humidity;BME280_pressure;Samples;Min_cycle;Max_cycle;Signal;HPM_P1;HPM_P2
2022/10/01 00:02:08;;;;;;;3.13;2.80;;;16.20;58.60;;;;;;5063925;28;20041;-44
2022/10/01 00:04:38;;;;;;;3.25;2.70;;;16.20;59.00;;;;;;5072480;28;20044;-45
2022/10/01 00:07:09;;;;;;;2.75;2.55;;;16.20;59.10;;;;;;5073346;28;20040;-46
2022/10/01 00:09:36;;;;;;;4.05;3.00;;;16.10;59.60;;;;;;5054925;28;20496;-45
2022/10/01 00:12:02;;;;;;;3.20;3.00;;;16.10;59.90;;;;;;5062207;28;20040;-44
2022/10/01 00:14:32;;;;;;;5.72;2.67;;;16.00;60.20;;;;;;5072209;28;20045;-45
2022/10/01 00:17:01;;;;;;;3.97;2.93;;;16.00;60.80;;;;;;5052037;28;20095;-46
2022/10/01 00:19:30;;;;;;;2.75;2.53;;;15.90;60.60;;;;;;5053166;28;20040;-45
2022/10/01 00:21:57;;;;;;;3.83;2.60;;;15.90;60.80;;;;;;5061394;28;20535;-46
2022/10/01 00:24:26;;;;;;;2.78;2.58;;;15.80;61.10;;;;;;5051803;28;20048;-45
2022/10/01 00:26:55;;;;;;;3.15;2.85;;;15.80;61.60;;;;;;5047162;28;20034;-45
2022/10/01 00:29:22;;;;;;;3.60;3.17;;;15.80;61.70;;;;;;5050899;28;20119;-45
2022/10/01 00:31:51;;;;;;;3.72;3.05;;;15.70;61.90;;;;;;5064271;28;20040;-45
2022/10/01 00:34:21;;;;;;;2.83;2.55;;;15.60;62.00;;;;;;5070747;28;20072;-46
2022/10/01 00:36:54;;;;;;;2.58;2.38;;;15.60;62.20;;;;;;5072273;28;20048;-45
2022/10/01 00:39:22;;;;;;;3.13;2.60;;;15.50;62.40;;;;;;5071858;28;20045;-45
2022/10/01 00:41:55;;;;;;;3.38;3.03;;;15.50;62.50;;;;;;5059445;28;20095;-44
2022/10/01 00:44:35;;;;;;;3.58;3.13;;;15.50;62.70;;;;;;5050593;28;20076;-45
2022/10/01 00:47:22;;;;;;;4.22;2.63;;;15.40;63.40;;;;;;5058222;28;20545;-45
2022/10/01 00:49:55;;;;;;;5.07;2.70;;;15.40;63.40;;;;;;5063722;28;20078;-45
2022/10/01 00:52:29;;;;;;;3.40;3.10;;;15.40;63.20;;;;;;5063395;28;20049;-45
2022/10/01 00:55:06;;;;;;;2.55;2.30;;;15.30;63.40;;;;;;5053269;28;20069;-45
2022/10/01 00:57:33;;;;;;;3.75;2.15;;;15.30;63.80;;;;;;5051055;28;20094;-44
2022/10/01 01:00:03;;;;;;;2.80;2.55;;;15.30;63.50;;;;;;5062991;28;20037;-45
2022/10/01 01:02:32;;;;;;;2.45;2.25;;;15.30;63.80;;;;;;5071795;28;20381;-45
2022/10/01 01:05:00;;;;;;;3.47;2.42;;;15.20;63.80;;;;;;5059429;28;20051;-45
2022/10/01 01:07:30;;;;;;;4.43;2.47;;;15.20;63.90;;;;;;5063212;28;20067;-46
2022/10/01 01:10:06;;;;;;;3.17;2.20;;;15.20;64.00;;;;;;5063319;28;20463;-46
2022/10/01 01:12:55;;;;;;;3.17;2.90;;;15.20;64.50;;;;;;5071057;28;20645;-45
2022/10/01 01:15:59;;;;;;;3.60;2.38;;;15.20;64.50;;;;;;5058329;28;20480;-45
2022/10/01 01:18:30;;;;;;;3.60;2.83;;;15.20;65.00;;;;;;5045499;28;20111;-47
2022/10/01 01:21:19;;;;;;;2.47;2.28;;;15.20;64.40;;;;;;5052206;28;20041;-46
2022/10/01 01:23:52;;;;;;;4.30;2.10;;;15.10;64.70;;;;;;5049384;28;20048;-45
2022/10/01 01:26:50;;;;;;;3.30;2.70;;;15.10;64.30;;;;;;5061669;28;20465;-45
2022/10/01 01:29:38;;;;;;;2.65;2.45;;;15.10;65.40;;;;;;5070441;28;20043;-45
2022/10/01 01:32:12;;;;;;;2.38;2.17;;;15.10;65.20;;;;;;5049564;28;20577;-45
2022/10/01 01:34:48;;;;;;;3.60;2.42;;;15.10;65.00;;;;;;5058358;28;20083;-46
2022/10/01 01:37:22;;;;;;;2.70;2.25;;;15.10;65.20;;;;;;5062426;28;20048;-45
2022/10/01 01:39:52;;;;;;;3.20;2.38;;;15.10;65.30;;;;;;5071049;28;20123;-45
2022/10/01 01:42:25;;;;;;;3.22;1.95;;;15.00;65.20;;;;;;5055586;28;20492;-44
2022/10/01 01:44:58;;;;;;;2.42;2.22;;;15.10;65.80;;;;;;5063309;28;20067;-45
2022/10/01 01:47:31;;;;;;;2.70;2.25;;;15.00;65.40;;;;;;5031462;28;20041;-45
2022/10/01 01:50:01;;;;;;;1.90;1.80;;;15.00;65.80;;;;;;5031323;28;20212;-45
2022/10/01 01:52:31;;;;;;;2.75;2.50;;;15.10;65.90;;;;;;5051347;28;20090;-45
2022/10/01 01:54:58;;;;;;;3.50;2.35;;;15.00;66.00;;;;;;5058361;28;20147;-46
2022/10/01 01:57:25;;;;;;;3.22;2.38;;;15.00;66.10;;;;;;5070748;28;20068;-44
2022/10/01 01:59:54;;;;;;;3.03;2.70;;;15.00;66.20;;;;;;5058073;28;20170;-46
2022/10/01 02:02:25;;;;;;;4.65;3.17;;;15.00;66.40;;;;;;5064949;28;20048;-45
2022/10/01 02:04:59;;;;;;;3.25;2.92;;;15.00;66.80;;;;;;5066248;28;20119;-45
2022/10/01 02:07:52;;;;;;;3.88;2.55;;;15.00;66.80;;;;;;5070184;28;20127;-44
2022/10/01 02:10:40;;;;;;;2.22;2.00;;;15.00;68.10;;;;;;5039965;28;20102;-46
2022/10/01 02:13:22;;;;;;;2.92;2.30;;;14.90;66.80;;;;;;5058966;28;20124;-45
2022/10/01 02:16:08;;;;;;;2.97;2.00;;;14.90;68.00;;;;;;5058733;28;20052;-45
2022/10/01 02:19:10;;;;;;;3.78;2.38;;;14.90;68.10;;;;;;5049704;28;20053;-45
2022/10/01 02:21:39;;;;;;;2.17;2.00;;;14.80;68.80;;;;;;5053142;28;20067;-45
2022/10/01 02:24:18;;;;;;;2.08;1.77;;;14.80;67.70;;;;;;5055229;28;20623;-45
2022/10/01 02:26:49;;;;;;;1.88;1.77;;;14.80;68.60;;;;;;5050602;28;20048;-45
2022/10/01 02:29:19;;;;;;;2.80;1.47;;;14.70;68.80;;;;;;5046452;28;20116;-46
2022/10/01 02:31:52;;;;;;;1.80;1.65;;;14.70;68.80;;;;;;5062491;28;20072;-45
2022/10/01 02:34:23;;;;;;;1.80;1.48;;;14.70;69.00;;;;;;5068414;28;20493;-45
2022/10/01 02:36:52;;;;;;;1.60;1.50;;;14.70;69.20;;;;;;5063660;28;20456;-45
2022/10/01 02:39:24;;;;;;;2.13;1.45;;;14.70;69.30;;;;;;5059748;28;20048;-45
2022/10/01 02:41:58;;;;;;;1.33;1.33;;;14.70;69.30;;;;;;5054419;28;20102;-44
2022/10/01 02:44:31;;;;;;;2.35;1.20;;;14.70;69.40;;;;;;5048893;28;20037;-45
2022/10/01 02:47:15;;;;;;;1.58;1.40;;;14.70;69.70;;;;;;5047068;28;20135;-45
2022/10/01 02:49:42;;;;;;;2.42;1.38;;;14.70;70.00;;;;;;5052573;28;20115;-45
2022/10/01 02:52:39;;;;;;;1.58;1.20;;;14.70;69.50;;;;;;5067968;28;20093;-44
2022/10/01 02:55:29;;;;;;;0.95;0.90;;;14.70;70.80;;;;;;5067835;28;20087;-45
2022/10/01 02:57:59;;;;;;;3.20;1.40;;;14.70;71.00;;;;;;5048060;28;20045;-44
2022/10/01 03:00:28;;;;;;;1.20;1.10;;;14.70;69.70;;;;;;5065833;28;20120;-45
2022/10/01 03:02:54;;;;;;;1.27;1.13;;;14.60;69.90;;;;;;5068963;28;20501;-45
2022/10/01 03:05:26;;;;;;;1.00;1.00;;;14.70;70.00;;;;;;5051976;28;20037;-45
2022/10/01 03:07:57;;;;;;;1.00;0.80;;;14.70;70.40;;;;;;5053490;28;20087;-45
2022/10/01 03:10:29;;;;;;;1.55;0.85;;;14.70;70.10;;;;;;5051041;28;20052;-46
2022/10/01 03:12:56;;;;;;;1.00;0.85;;;14.60;70.80;;;;;;5049818;28;20075;-46
2022/10/01 03:15:26;;;;;;;1.98;0.82;;;14.70;70.30;;;;;;5050194;28;20047;-46
2022/10/01 03:18:01;;;;;;;0.90;0.82;;;14.70;70.50;;;;;;5047947;28;20044;-45
2022/10/01 03:20:29;;;;;;;0.63;0.60;;;14.70;70.40;;;;;;5064871;28;20424;-45
2022/10/01 03:22:58;;;;;;;0.43;0.43;;;14.60;70.40;;;;;;5062110;28;20041;-45
2022/10/01 03:25:27;;;;;;;0.63;0.57;;;14.70;70.50;;;;;;5048537;28;20037;-45
2022/10/01 03:27:57;;;;;;;0.45;0.45;;;14.70;70.40;;;;;;5062627;28;20519;-45
2022/10/01 03:30:25;;;;;;;0.55;0.52;;;14.70;70.50;;;;;;5057945;28;20045;-45
2022/10/01 03:32:56;;;;;;;0.68;0.40;;;14.70;70.50;;;;;;5064367;28;20044;-49
2022/10/01 03:35:23;;;;;;;0.50;0.50;;;14.70;70.70;;;;;;5064143;28;20052;-45
2022/10/01 03:37:50;;;;;;;0.47;0.43;;;14.70;70.50;;;;;;5064662;28;20059;-47
2022/10/01 03:40:17;;;;;;;0.40;0.40;;;14.70;70.50;;;;;;5073676;28;20477;-47
2022/10/01 03:42:43;;;;;;;1.17;0.50;;;14.70;70.30;;;;;;5051099;28;20045;-45
2022/10/01 03:45:13;;;;;;;0.35;0.35;;;14.70;70.50;;;;;;5056236;28;20051;-45
2022/10/01 03:47:42;;;;;;;0.32;0.32;;;14.80;70.70;;;;;;5064341;28;20047;-45
2022/10/01 03:50:09;;;;;;;0.35;0.30;;;14.80;70.60;;;;;;5072230;28;20052;-48
2022/10/01 03:52:38;;;;;;;0.40;0.40;;;14.80;70.50;;;;;;5063676;28;20094;-44
2022/10/01 03:55:05;;;;;;;0.43;0.22;;;14.80;70.50;;;;;;5067231;28;20048;-49
2022/10/01 03:57:32;;;;;;;0.20;0.20;;;14.80;70.60;;;;;;5053341;28;20053;-45
2022/10/01 04:00:06;;;;;;;1.23;0.30;;;14.80;70.50;;;;;;5052992;28;20087;-46
2022/10/01 04:02:39;;;;;;;0.40;0.30;;;14.80;70.40;;;;;;5049962;28;20107;-47
2022/10/01 04:05:06;;;;;;;0.13;0.13;;;14.90;70.50;;;;;;5058462;28;20040;-46
2022/10/01 04:07:33;;;;;;;0.30;0.30;;;14.90;70.50;;;;;;5065289;28;20119;-44
2022/10/01 04:10:00;;;;;;;0.40;0.40;;;14.90;70.40;;;;;;5073040;28;20087;-46
2022/10/01 04:12:27;;;;;;;0.20;0.20;;;14.90;70.40;;;;;;5058975;28;20044;-45
2022/10/01 04:14:53;;;;;;;0.32;0.20;;;14.90;70.50;;;;;;5056819;28;20076;-45
2022/10/01 04:17:21;;;;;;;1.27;0.10;;;14.90;70.40;;;;;;5055390;28;20072;-44
2022/10/01 04:19:50;;;;;;;0.13;0.10;;;15.00;70.50;;;;;;5041765;28;20044;-46
2022/10/01 04:22:19;;;;;;;0.10;0.10;;;15.00;70.40;;;;;;5048072;28;20037;-45
2022/10/01 04:24:45;;;;;;;0.15;0.10;;;14.90;70.50;;;;;;5048517;28;20037;-44
2022/10/01 04:27:16;;;;;;;0.52;0.10;;;15.00;70.40;;;;;;5044882;28;20117;-45
2022/10/01 04:29:57;;;;;;;;;;;;;;;;;;;;;
2022/10/01 04:32:24;;;;;;;0.10;0.10;;;15.10;70.50;;;;;;5055243;28;20048;-45
2022/10/01 04:34:51;;;;;;;0.20;0.20;;;15.10;70.40;;;;;;5063482;28;20485;-46
2022/10/01 04:37:23;;;;;;;0.40;0.20;;;15.10;70.60;;;;;;5052637;28;20552;-46
2022/10/01 04:39:50;;;;;;;0.20;0.15;;;15.10;70.80;;;;;;5037562;28;20055;-45
2022/10/01 04:42:22;;;;;;;0.35;0.22;;;15.20;70.50;;;;;;5046561;28;20049;-46
2022/10/01 04:44:48;;;;;;;0.40;0.30;;;15.20;70.50;;;;;;5063337;28;20102;-45
2022/10/01 04:47:16;;;;;;;0.40;0.10;;;15.20;70.60;;;;;;5071824;28;20102;-45
2022/10/01 04:49:43;;;;;;;0.30;0.10;;;15.10;70.60;;;;;;5058720;28;20036;-45
2022/10/01 04:52:12;;;;;;;0.17;0.10;;;15.20;70.70;;;;;;5054937;28;20103;-45
2022/10/01 04:54:41;;;;;;;0.20;0.10;;;15.10;70.70;;;;;;5045190;28;20037;-46
2022/10/01 04:57:07;;;;;;;0.20;0.10;;;15.10;70.60;;;;;;5041507;28;20041;-46
2022/10/01 04:59:36;;;;;;;0.10;0.10;;;15.10;70.60;;;;;;5047437;28;20520;-45
2022/10/01 05:02:03;;;;;;;0.10;0.10;;;15.20;70.60;;;;;;5048831;28;20033;-46
2022/10/01 05:04:30;;;;;;;0.32;0.00;;;15.20;70.80;;;;;;5043883;28;20100;-45
2022/10/01 05:06:56;;;;;;;0.20;0.20;;;15.20;70.70;;;;;;5039970;28;20689;-49
2022/10/01 05:09:23;;;;;;;0.10;0.10;;;15.20;70.80;;;;;;5043694;28;20044;-45
2022/10/01 05:11:50;;;;;;;0.10;0.10;;;15.20;70.90;;;;;;5059484;28;20469;-45
2022/10/01 05:14:20;;;;;;;0.43;0.10;;;15.20;70.90;;;;;;5069988;28;20135;-45
2022/10/01 05:16:46;;;;;;;1.75;0.10;;;15.20;70.90;;;;;;5053568;28;20059;-47
2022/10/01 05:19:15;;;;;;;3.65;0.40;;;15.30;71.10;;;;;;5049960;28;20049;-45
2022/10/01 05:21:47;;;;;;;0.20;0.10;;;15.20;71.10;;;;;;5062390;28;20032;-46
2022/10/01 05:24:16;;;;;;;0.00;0.00;;;15.20;71.10;;;;;;5033281;28;20077;-45
2022/10/01 05:26:50;;;;;;;0.28;0.10;;;15.30;71.50;;;;;;5039117;28;20045;-45
2022/10/01 05:29:18;;;;;;;0.10;0.10;;;15.20;71.20;;;;;;5064582;28;20084;-45
2022/10/01 05:31:48;;;;;;;0.40;0.20;;;15.30;71.40;;;;;;5066917;28;20052;-46
2022/10/01 05:34:17;;;;;;;0.30;0.30;;;15.20;71.40;;;;;;5058305;28;20045;-46
2022/10/01 05:36:44;;;;;;;2.33;1.23;;;15.20;71.40;;;;;;5052622;28;20037;-46
2022/10/01 05:39:13;;;;;;;0.90;0.55;;;15.20;71.30;;;;;;5053530;28;20072;-46
2022/10/01 05:41:39;;;;;;;0.50;0.50;;;15.30;71.60;;;;;;5051046;28;20037;-45
2022/10/01 05:44:06;;;;;;;0.73;0.40;;;15.30;71.60;;;;;;5045990;28;20037;-45
2022/10/01 05:46:33;;;;;;;0.90;0.30;;;15.30;71.60;;;;;;5065990;28;20037;-45
2022/10/01 05:49:00;;;;;;;0.68;0.30;;;15.30;71.60;;;;;;5052957;28;20059;-45
2022/10/01 05:51:29;;;;;;;0.50;0.28;;;15.30;71.60;;;;;;5050846;28;20048;-46
2022/10/01 05:53:59;;;;;;;;;;;15.30;71.60;;;;;;5050269;28;20047;-44
2022/10/01 05:56:31;;;;;;;0.20;0.20;;;15.40;71.60;;;;;;5043922;28;20383;-46
2022/10/01 05:58:58;;;;;;;0.30;0.20;;;15.40;71.00;;;;;;5054322;28;20680;-49
2022/10/01 06:01:25;;;;;;;0.38;0.20;;;15.40;71.10;;;;;;5058098;28;20041;-52
2022/10/01 06:03:52;;;;;;;1.33;0.20;;;15.40;71.10;;;;;;5061042;28;20091;-49
2022/10/01 06:06:27;;;;;;;0.30;0.17;;;15.50;71.30;;;;;;5047531;28;20412;-49
2022/10/01 06:08:54;;;;;;;0.17;0.13;;;15.50;71.70;;;;;;5061348;28;20140;-50
2022/10/01 06:11:23;;;;;;;0.77;0.20;;;15.50;71.30;;;;;;5067525;28;20045;-50
2022/10/01 06:13:50;;;;;;;0.43;0.10;;;15.50;71.30;;;;;;5054666;28;20436;-53
2022/10/01 06:16:16;;;;;;;0.10;0.10;;;15.50;71.30;;;;;;5062984;28;20148;-48
2022/10/01 06:18:43;;;;;;;0.65;0.30;;;15.60;71.50;;;;;;5049532;28;20041;-50
2022/10/01 06:21:10;;;;;;;0.55;0.30;;;15.60;71.40;;;;;;5049448;28;20045;-51
2022/10/01 06:23:36;;;;;;;0.10;0.10;;;15.60;71.30;;;;;;5056031;28;20041;-49
2022/10/01 06:26:05;;;;;;;0.68;0.20;;;15.70;72.00;;;;;;5066573;28;20642;-51
2022/10/01 06:28:32;;;;;;;0.10;0.10;;;15.70;71.40;;;;;;5051640;28;20033;-49
2022/10/01 06:31:02;;;;;;;0.75;0.10;;;15.70;71.20;;;;;;5028367;28;20047;-50
2022/10/01 06:33:29;;;;;;;2.25;0.20;;;15.70;71.30;;;;;;5040306;28;20060;-49
2022/10/01 06:35:56;;;;;;;0.20;0.15;;;15.80;71.20;;;;;;5046108;28;20048;-50
2022/10/01 06:38:23;;;;;;;1.50;0.30;;;15.80;71.40;;;;;;5051877;28;20056;-50
2022/10/01 06:40:52;;;;;;;0.20;0.20;;;15.80;71.40;;;;;;5046429;28;20055;-49
2022/10/01 06:43:19;;;;;;;0.22;0.20;;;15.80;71.30;;;;;;5055446;28;20045;-49
2022/10/01 06:45:46;;;;;;;0.32;0.10;;;15.80;71.30;;;;;;5034668;28;20041;-51
2022/10/01 06:48:14;;;;;;;0.20;0.20;;;15.90;71.20;;;;;;5034145;28;20037;-51
2022/10/01 06:50:43;;;;;;;0.20;0.20;;;15.90;71.20;;;;;;5049606;28;20091;-51
2022/10/01 06:53:10;;;;;;;0.73;0.40;;;15.90;71.20;;;;;;5050144;28;20045;-50
2022/10/01 06:55:37;;;;;;;0.45;0.20;;;15.90;71.20;;;;;;5062236;28;20123;-49
2022/10/01 06:58:11;;;;;;;0.70;0.28;;;15.90;71.30;;;;;;5067748;28;20059;-53
2022/10/01 07:00:38;;;;;;;1.42;0.32;;;15.90;71.40;;;;;;5042045;28;20095;-49
2022/10/01 07:03:09;;;;;;;0.20;0.10;;;15.90;71.50;;;;;;5058773;28;20044;-49
2022/10/01 07:05:39;;;;;;;0.20;0.20;;;15.90;71.70;;;;;;5062124;28;20750;-49
2022/10/01 07:08:07;;;;;;;0.10;0.10;;;16.00;72.30;;;;;;5056293;28;20144;-50
2022/10/01 07:10:35;;;;;;;0.45;0.10;;;15.90;72.00;;;;;;5037255;28;20041;-50
2022/10/01 07:13:12;;;;;;;0.32;0.13;;;15.90;72.20;;;;;;5059209;28;20037;-51
2022/10/01 07:15:42;;;;;;;0.63;0.30;;;15.90;72.60;;;;;;5040358;28;20537;-50
2022/10/01 07:18:10;;;;;;;0.17;0.10;;;15.90;72.30;;;;;;5044717;28;20044;-49
2022/10/01 07:20:41;;;;;;;0.20;0.15;;;15.90;72.30;;;;;;5059448;28;20385;-50
2022/10/01 07:23:10;;;;;;;0.30;0.20;;;15.90;72.60;;;;;;5060725;28;20116;-53
2022/10/01 07:25:38;;;;;;;0.52;0.20;;;15.90;72.80;;;;;;5056037;28;20049;-49
2022/10/01 07:28:06;;;;;;;0.35;0.20;;;15.90;72.70;;;;;;5044827;28;20038;-51
2022/10/01 07:30:33;;;;;;;1.48;0.30;;;16.00;72.80;;;;;;5042663;28;20495;-50
2022/10/01 07:33:00;;;;;;;0.15;0.10;;;16.00;72.90;;;;;;5061000;28;20556;-49
2022/10/01 07:35:28;;;;;;;0.77;0.35;;;16.00;72.90;;;;;;5069334;28;20435;-51
2022/10/01 07:37:55;;;;;;;0.38;0.25;;;16.00;72.80;;;;;;5049154;28;20041;-50
2022/10/01 07:40:21;;;;;;;0.35;0.20;;;16.00;72.90;;;;;;5060063;28;20041;-50
2022/10/01 07:42:55;;;;;;;0.50;0.40;;;16.10;73.00;;;;;;5064346;28;20594;-55
2022/10/01 07:45:22;;;;;;;0.80;0.50;;;16.10;73.20;;;;;;5047807;28;20033;-52
2022/10/01 07:47:59;;;;;;;0.63;0.32;;;16.20;73.00;;;;;;5055833;28;20029;-50
2022/10/01 07:50:29;;;;;;;0.75;0.50;;;16.30;73.50;;;;;;5049639;28;20045;-53
2022/10/01 07:52:57;;;;;;;1.08;0.50;;;16.30;73.10;;;;;;5049009;28;20041;-51
2022/10/01 07:55:27;;;;;;;0.50;0.45;;;16.40;73.20;;;;;;5048300;28;20048;-52
2022/10/01 07:58:00;;;;;;;1.45;0.47;;;16.40;73.10;;;;;;5058525;28;20045;-50
2022/10/01 08:00:32;;;;;;;1.05;0.35;;;16.50;73.20;;;;;;5060075;28;20036;-50
2022/10/01 08:02:59;;;;;;;0.50;0.50;;;16.60;73.50;;;;;;5069541;28;20511;-50
2022/10/01 08:05:33;;;;;;;1.17;0.40;;;16.70;73.30;;;;;;5051422;28;20055;-49
2022/10/01 08:08:02;;;;;;;0.60;0.40;;;16.80;73.90;;;;;;5056981;28;20043;-52
2022/10/01 08:10:29;;;;;;;0.52;0.50;;;16.90;73.90;;;;;;5054191;28;20120;-50
2022/10/01 08:13:01;;;;;;;1.17;0.40;;;17.00;73.60;;;;;;5053562;28;20045;-50
2022/10/01 08:15:29;;;;;;;1.33;0.40;;;17.10;73.50;;;;;;5055170;28;20416;-52
2022/10/01 08:18:01;;;;;;;0.73;0.38;;;17.20;73.70;;;;;;5052571;28;20049;-51
2022/10/01 08:20:27;;;;;;;2.22;0.60;;;17.20;72.40;;;;;;5053986;28;20416;-49
2022/10/01 08:23:01;;;;;;;1.17;1.08;;;17.30;72.30;;;;;;5048579;28;20575;-53
2022/10/01 08:25:34;;;;;;;0.38;0.30;;;17.40;72.30;;;;;;5047241;28;20448;-49
2022/10/01 08:28:01;;;;;;;1.50;0.40;;;17.40;71.80;;;;;;5061672;28;20044;-50
2022/10/01 08:30:31;;;;;;;0.82;0.52;;;17.50;71.80;;;;;;5065573;28;20047;-50
2022/10/01 08:33:00;;;;;;;0.82;0.80;;;17.50;71.70;;;;;;5072277;28;20071;-49
2022/10/01 08:35:33;;;;;;;1.27;0.55;;;17.60;71.50;;;;;;5057060;28;20451;-50
2022/10/01 08:38:03;;;;;;;1.25;0.63;;;17.60;71.30;;;;;;5063231;28;20558;-50
2022/10/01 08:40:36;;;;;;;1.58;0.60;;;17.60;71.30;;;;;;5071800;28;20049;-50
2022/10/01 08:43:06;;;;;;;1.33;0.40;;;17.50;71.30;;;;;;5048630;28;20037;-52
2022/10/01 08:45:43;;;;;;;0.55;0.40;;;17.50;71.20;;;;;;5060641;28;20066;-51
2022/10/01 08:48:47;;;;;;;1.10;0.60;;;17.50;71.70;;;;;;5063575;28;20120;-53
2022/10/01 08:51:29;;;;;;;1.05;0.63;;;17.40;72.20;;;;;;5073562;28;20051;-50
2022/10/01 08:54:13;;;;;;;2.33;0.50;;;17.40;72.00;;;;;;5053899;28;20045;-50
2022/10/01 08:56:46;;;;;;;0.63;0.50;;;17.30;72.20;;;;;;5061154;28;20037;-50
2022/10/01 08:59:31;;;;;;;1.38;0.70;;;17.20;71.90;;;;;;5071125;28;20107;-49
2022/10/01 09:01:58;;;;;;;1.85;1.25;;;17.20;73.00;;;;;;5059679;28;20042;-50
2022/10/01 09:04:30;;;;;;;1.33;0.68;;;17.10;72.20;;;;;;5054948;28;20496;-50
2022/10/01 09:07:16;;;;;;;1.00;0.70;;;17.10;72.60;;;;;;5063294;28;20051;-53
2022/10/01 09:09:55;;;;;;;1.95;0.50;;;17.00;73.80;;;;;;5072437;28;20087;-49
2022/10/01 09:12:28;;;;;;;0.55;0.55;;;16.90;73.50;;;;;;5056021;28;20040;-51
2022/10/01 09:15:01;;;;;;;0.85;0.82;;;16.90;73.50;;;;;;5063664;28;20055;-52
2022/10/01 09:18:08;;;;;;;0.98;0.40;;;16.90;73.70;;;;;;5046585;28;20044;-50
2022/10/01 09:20:39;;;;;;;0.80;0.40;;;17.00;74.90;;;;;;5034664;28;20076;-50
2022/10/01 09:23:26;;;;;;;1.57;0.60;;;16.90;74.00;;;;;;5053223;28;20048;-52
2022/10/01 09:25:56;;;;;;;0.75;0.70;;;17.00;75.50;;;;;;5064179;28;20064;-49
2022/10/01 09:28:30;;;;;;;0.75;0.50;;;17.00;73.90;;;;;;5071171;28;20049;-53
2022/10/01 09:31:25;;;;;;;1.00;0.50;;;17.10;74.20;;;;;;5059324;28;20037;-49
2022/10/01 09:34:13;;;;;;;0.68;0.43;;;17.10;74.50;;;;;;5056722;28;20037;-50
2022/10/01 09:36:51;;;;;;;2.78;0.90;;;17.20;74.60;;;;;;5032412;28;20046;-50
2022/10/01 09:39:25;;;;;;;1.33;0.70;;;17.20;74.00;;;;;;5032368;28;20052;-49
2022/10/01 09:41:58;;;;;;;1.85;0.70;;;17.30;73.80;;;;;;5048485;28;20047;-50
2022/10/01 09:44:31;;;;;;;1.00;0.65;;;17.30;73.10;;;;;;5041007;23;20428;-54
2022/10/01 09:46:58;;;;;;;1.42;0.60;;;17.30;73.10;;;;;;5029119;28;20064;-54
2022/10/01 09:49:44;;;;;;;2.30;0.60;;;17.30;72.90;;;;;;5026753;28;20505;-51
2022/10/01 09:52:18;;;;;;;2.97;0.85;;;17.40;73.50;;;;;;5036841;28;20678;-50
2022/10/01 09:54:59;;;;;;;4.57;1.58;;;17.30;73.80;;;;;;5033285;28;20076;-54
2022/10/01 09:57:39;;;;;;;1.88;1.10;;;17.40;74.10;;;;;;5030716;28;20069;-52
2022/10/01 10:00:10;;;;;;;2.60;2.38;;;17.30;74.30;;;;;;5033070;28;20059;-54
2022/10/01 10:02:45;;;;;;;2.47;1.50;;;17.30;73.80;;;;;;5025164;28;20056;-54
2022/10/01 10:05:31;;;;;;;2.95;1.40;;;17.40;74.00;;;;;;5051149;28;20393;-54
2022/10/01 10:08:11;;;;;;;3.47;1.85;;;17.40;73.90;;;;;;5027976;28;20049;-52
2022/10/01 10:10:47;;;;;;;5.07;2.50;;;17.40;74.80;;;;;;5032468;28;20037;-54
2022/10/01 10:13:26;;;;;;;3.03;2.58;;;17.50;74.20;;;;;;5032959;28;20411;-54
2022/10/01 10:15:56;;;;;;;4.45;2.63;;;17.50;74.30;;;;;;5030665;28;20049;-53
2022/10/01 10:18:33;;;;;;;4.80;2.42;;;17.60;74.30;;;;;;5029545;28;20565;-54
2022/10/01 10:21:18;;;;;;;6.97;3.22;;;17.60;74.80;;;;;;5039635;28;20052;-53
2022/10/01 10:23:57;;;;;;;4.75;3.00;;;17.70;74.70;;;;;;5030340;28;20054;-54
2022/10/01 10:26:34;;;;;;;6.63;2.83;;;17.90;75.00;;;;;;5038022;28;20042;-53
2022/10/01 10:29:04;;;;;;;6.10;3.72;;;18.00;75.10;;;;;;5028074;28;20501;-54
2022/10/01 10:31:42;;;;;;;5.97;3.30;;;18.20;74.90;;;;;;5037892;28;20059;-52
2022/10/01 10:34:20;;;;;;;8.27;3.78;;;18.30;74.00;;;;;;5030152;28;20409;-52
2022/10/01 10:36:47;;;;;;;5.45;3.00;;;18.40;73.30;;;;;;5027159;28;20067;-55
2022/10/01 10:39:23;;;;;;;5.15;3.25;;;18.50;72.30;;;;;;5025359;28;20049;-55
2022/10/01 10:41:51;;;;;;;5.10;2.97;;;18.60;72.70;;;;;;5030935;28;20557;-54
2022/10/01 10:44:21;;;;;;;8.25;3.15;;;18.70;72.30;;;;;;5034591;28;20033;-54
2022/10/01 10:46:50;;;;;;;6.40;3.00;;;18.70;72.00;;;;;;5041240;28;20045;-54
2022/10/01 10:49:30;;;;;;;4.78;3.17;;;18.80;72.00;;;;;;5042052;28;20079;-54
2022/10/01 10:52:00;;;;;;;6.10;2.80;;;18.80;72.30;;;;;;5035748;28;20481;-52
2022/10/01 10:54:31;;;;;;;3.38;2.08;;;18.70;71.30;;;;;;5023853;28;20057;-51
2022/10/01 10:57:17;;;;;;;3.47;1.75;;;18.70;70.60;;;;;;5028071;28;20093;-55
2022/10/01 10:59:55;;;;;;;4.10;1.92;;;18.70;70.60;;;;;;5023842;28;20470;-55
2022/10/01 11:02:24;;;;;;;4.65;1.95;;;18.60;70.30;;;;;;5038051;28;20025;-53
2022/10/01 11:04:53;;;;;;;6.70;1.88;;;18.60;69.70;;;;;;5028959;28;20045;-55
2022/10/01 11:07:25;;;;;;;4.85;2.38;;;18.50;69.70;;;;;;5036596;28;20053;-54
2022/10/01 11:10:05;;;;;;;5.93;2.03;;;18.50;69.70;;;;;;5030649;28;20036;-54
2022/10/01 11:13:07;;;;;;;10.73;2.90;;;18.50;69.60;;;;;;5028267;28;20408;-55
2022/10/01 11:15:56;;;;;;;3.97;1.80;;;18.60;70.30;;;;;;5039257;28;20519;-55
2022/10/01 11:18:36;;;;;;;5.10;2.00;;;18.60;69.60;;;;;;5029061;28;20054;-54
2022/10/01 11:21:24;;;;;;;6.50;1.88;;;18.60;69.10;;;;;;5030619;28;20423;-55
2022/10/01 11:24:13;;;;;;;5.82;2.00;;;18.60;68.50;;;;;;5022379;28;20037;-54
2022/10/01 11:26:51;;;;;;;4.93;1.92;;;18.70;67.60;;;;;;4989459;28;20048;-52
2022/10/01 11:29:57;;;;;;;2.17;1.90;;;18.70;67.70;;;;;;5049876;28;20037;-55
2022/10/01 11:32:35;;;;;;;3.08;1.90;;;18.70;67.70;;;;;;5014281;28;20502;-53
2022/10/01 11:35:20;;;;;;;4.75;1.98;;;18.70;68.10;;;;;;5040206;28;20128;-55
2022/10/01 11:38:20;;;;;;;4.22;1.73;;;18.70;67.90;;;;;;5029531;28;20064;-54
2022/10/01 11:40:59;;;;;;;9.55;2.70;;;18.70;67.60;;;;;;4997455;28;20049;-54
2022/10/01 11:43:50;;;;;;;5.63;1.85;;;18.70;67.40;;;;;;5034984;28;20048;-55
2022/10/01 11:46:32;;;;;;;5.63;2.17;;;18.80;67.60;;;;;;5042901;28;20120;-54
2022/10/01 11:49:30;;;;;;;4.80;1.88;;;18.80;67.30;;;;;;5039621;28;20037;-55
2022/10/01 11:52:16;;;;;;;5.88;2.20;;;18.90;67.90;;;;;;5029848;28;20041;-55
2022/10/01 12:01:18;;;;;;;11.25;2.58;;;19.00;66.70;;;;;;5042324;28;20041;-57
2022/10/01 12:03:51;;;;;;;6.60;2.95;;;19.10;66.30;;;;;;5046286;28;20042;-55
2022/10/01 12:06:28;;;;;;;3.28;1.85;;;19.10;66.30;;;;;;5034134;28;20052;-54
2022/10/01 12:09:15;;;;;;;8.98;3.20;;;19.20;66.20;;;;;;5027956;28;20559;-52
2022/10/01 12:11:49;;;;;;;4.00;2.40;;;19.20;66.40;;;;;;5033035;28;20049;-55
2022/10/01 12:14:26;;;;;;;8.57;2.65;;;19.30;66.30;;;;;;5034421;28;20041;-55
2022/10/01 12:16:58;;;;;;;7.28;2.63;;;19.40;65.60;;;;;;5022489;28;20065;-54
2022/10/01 12:19:36;;;;;;;;;;;19.40;65.80;;;;;;5031992;28;20045;-55
2022/10/01 12:22:32;;;;;;;7.88;2.50;;;19.50;66.00;;;;;;5033418;28;20503;-53
2022/10/01 12:24:59;;;;;;;6.13;2.47;;;19.60;65.60;;;;;;5030053;28;20111;-54
2022/10/01 12:27:52;;;;;;;3.53;1.90;;;19.70;65.90;;;;;;5041660;28;20037;-55
2022/10/01 12:30:24;;;;;;;6.85;2.30;;;19.80;65.70;;;;;;5037955;28;20040;-54
2022/10/01 12:33:05;;;;;;;6.22;2.70;;;19.90;65.20;;;;;;5037737;28;20088;-54
2022/10/01 12:35:56;;;;;;;3.78;1.75;;;20.00;64.90;;;;;;5027739;28;20123;-55
2022/10/01 12:38:24;;;;;;;9.98;2.28;;;20.10;64.00;;;;;;5025935;28;20067;-54
2022/10/01 12:41:33;;;;;;;4.57;1.98;;;20.20;63.90;;;;;;5044286;28;20052;-53
2022/10/01 12:44:08;;;;;;;4.93;2.22;;;20.30;63.10;;;;;;4991328;28;20050;-54
2022/10/01 12:47:00;;;;;;;7.97;2.17;;;20.30;62.50;;;;;;5020817;28;20136;-54
2022/10/01 12:49:40;;;;;;;5.40;2.03;;;20.40;63.10;;;;;;5031032;28;20052;-53
2022/10/01 12:52:20;;;;;;;5.10;2.22;;;20.40;62.40;;;;;;5030936;28;20412;-53
2022/10/01 12:55:09;;;;;;;7.05;2.38;;;20.50;61.90;;;;;;5012646;28;20446;-55
2022/10/01 12:57:56;;;;;;;4.53;2.60;;;20.50;62.10;;;;;;5033082;28;20046;-55
2022/10/01 13:00:25;;;;;;;3.15;2.17;;;20.60;61.40;;;;;;5044161;28;20079;-55
2022/10/01 13:03:19;;;;;;;4.85;2.10;;;20.60;62.00;;;;;;5051476;28;20051;-54
2022/10/01 13:06:28;;;;;;;8.10;1.70;;;20.70;61.40;;;;;;5036368;28;20109;-55
2022/10/01 13:09:16;;;;;;;6.18;2.17;;;20.90;61.50;;;;;;5035007;28;20055;-55
2022/10/01 13:12:16;;;;;;;4.63;1.60;;;21.00;61.20;;;;;;5041475;28;20045;-54
2022/10/01 13:14:44;;;;;;;5.30;2.10;;;21.10;60.10;;;;;;5041841;28;20417;-55
2022/10/01 13:17:21;;;;;;;5.95;1.80;;;21.20;59.40;;;;;;5030280;28;20125;-56
2022/10/01 13:20:00;;;;;;;4.13;1.23;;;21.30;58.10;;;;;;5038874;28;20103;-55
2022/10/01 13:23:03;;;;;;;5.53;1.70;;;21.30;58.70;;;;;;5043451;28;20107;-54
2022/10/01 13:25:38;;;;;;;;;;;21.30;59.50;;;;;;5024159;28;20052;-55
2022/10/01 13:28:29;;;;;;;7.38;1.75;;;21.50;60.20;;;;;;5040563;28;20023;-54
2022/10/01 13:31:00;;;;;;;3.63;1.42;;;21.50;58.50;;;;;;5037452;28;20038;-54